sensor_id;sensor_type;location;lat;lon;timestamp;temperature;humidity
4647;DHT22;2336;47.822;7.564;2022-10-16T03:01:07;15.10;99.90
4647;DHT22;2336;47.822;7.564;2022-10-16T03:03:34;15.10;99.90
4647;DHT22;2336;47.822;7.564;2022-10-16T03:06:00;15.10;99.90
4647;DHT22;2336;47.822;7.564;2022-10-16T03:08:28;15.10;99.90
4647;DHT22;2336;47.822;7.564;2022-10-16T03:10:56;15.10;99.90
4647;DHT22;2336;47.822;7.564;2022-10-16T03:13:23;15.00;99.90
4647;DHT22;2336;47.822;7.564;2022-10-16T03:15:49;15.10;99.90
4647;DHT22;2336;47.822;7.564;2022-10-16T03:18:17;15.10;99.90
4647;DHT22;2336;47.822;7.564;2022-10-16T03:20:44;15.10;99.90
4647;DHT22;2336;47.822;7.564;2022-10-16T03:23:11;15.00;99.90
4647;DHT22;2336;47.822;7.564;2022-10-16T03:25:38;15.10;99.90
4647;DHT22;2336;47.822;7.564;2022-10-16T03:28:04;15.10;99.90
4647;DHT22;2336;47.822;7.564;2022-10-16T03:30:31;15.10;99.90
4647;DHT22;2336;47.822;7.564;2022-10-16T03:32:58;15.10;99.90
4647;DHT22;2336;47.822;7.564;2022-10-16T03:35:26;15.00;99.90
4647;DHT22;2336;47.822;7.564;2022-10-16T03:37:53;15.00;99.90
4647;DHT22;2336;47.822;7.564;2022-10-16T03:40:20;15.00;99.90
4647;DHT22;2336;47.822;7.564;2022-10-16T03:42:47;15.00;99.90
4647;DHT22;2336;47.822;7.564;2022-10-16T03:45:14;15.00;99.90
4647;DHT22;2336;47.822;7.564;2022-10-16T03:47:40;15.00;99.90
4647;DHT22;2336;47.822;7.564;2022-10-16T03:50:07;15.00;99.90
4647;DHT22;2336;47.822;7.564;2022-10-16T03:52:36;15.00;99.90
4647;DHT22;2336;47.822;7.564;2022-10-16T03:55:03;15.00;99.90
4647;DHT22;2336;47.822;7.564;2022-10-16T03:57:29;14.90;99.90
4647;DHT22;2336;47.822;7.564;2022-10-16T03:59:56;15.00;99.90
4647;DHT22;2336;47.822;7.564;2022-10-16T04:02:23;15.00;99.90
4647;DHT22;2336;47.822;7.564;2022-10-16T04:04:50;15.00;99.90
4647;DHT22;2336;47.822;7.564;2022-10-16T04:07:17;15.10;99.90
4647;DHT22;2336;47.822;7.564;2022-10-16T04:09:45;15.10;99.90
4647;DHT22;2336;47.822;7.564;2022-10-16T04:12:11;15.10;99.90
4647;DHT22;2336;47.822;7.564;2022-10-16T04:14:38;15.10;99.90
4647;DHT22;2336;47.822;7.564;2022-10-16T04:17:05;15.10;99.90
4647;DHT22;2336;47.822;7.564;2022-10-16T04:19:32;15.10;99.90
4647;DHT22;2336;47.822;7.564;2022-10-16T04:21:58;15.00;99.90
4647;DHT22;2336;47.822;7.564;2022-10-16T04:24:25;15.00;99.90
4647;DHT22;2336;47.822;7.564;2022-10-16T04:26:53;15.00;99.90
4647;DHT22;2336;47.822;7.564;2022-10-16T04:29:20;14.90;99.90
4647;DHT22;2336;47.822;7.564;2022-10-16T04:31:47;14.90;99.90
4647;DHT22;2336;47.822;7.564;2022-10-16T04:34:13;14.90;99.90
4647;DHT22;2336;47.822;7.564;2022-10-16T04:36:40;14.80;99.90
4647;DHT22;2336;47.822;7.564;2022-10-16T04:39:07;14.80;99.90
4647;DHT22;2336;47.822;7.564;2022-10-16T04:41:34;14.80;99.90
4647;DHT22;2336;47.822;7.564;2022-10-16T04:44:02;14.80;99.90
4647;DHT22;2336;47.822;7.564;2022-10-16T04:46:28;14.80;99.90
4647;DHT22;2336;47.822;7.564;2022-10-16T04:48:55;14.80;99.90
4647;DHT22;2336;47.822;7.564;2022-10-16T04:51:23;14.80;99.90
4647;DHT22;2336;47.822;7.564;2022-10-16T04:53:51;14.70;99.90
4647;DHT22;2336;47.822;7.564;2022-10-16T04:56:17;14.70;99.90
4647;DHT22;2336;47.822;7.564;2022-10-16T04:58:44;14.70;99.90
4647;DHT22;2336;47.822;7.564;2022-10-16T05:01:13;14.70;99.90
4647;DHT22;2336;47.822;7.564;2022-10-16T05:03:40;14.70;99.90
4647;DHT22;2336;47.822;7.564;2022-10-16T05:06:07;14.70;99.90
4647;DHT22;2336;47.822;7.564;2022-10-16T05:08:34;14.70;99.90
4647;DHT22;2336;47.822;7.564;2022-10-16T05:11:01;14.70;99.90
4647;DHT22;2336;47.822;7.564;2022-10-16T05:13:28;14.70;99.90
4647;DHT22;2336;47.822;7.564;2022-10-16T05:15:54;14.70;99.90
4647;DHT22;2336;47.822;7.564;2022-10-16T05:18:23;14.70;99.90
4647;DHT22;2336;47.822;7.564;2022-10-16T05:20:49;14.70;99.90
4647;DHT22;2336;47.822;7.564;2022-10-16T05:23:16;14.70;99.90
4647;DHT22;2336;47.822;7.564;2022-10-16T05:25:43;14.70;99.90
4647;DHT22;2336;47.822;7.564;2022-10-16T05:28:09;14.70;99.90
4647;DHT22;2336;47.822;7.564;2022-10-16T05:30:37;14.70;99.90
4647;DHT22;2336;47.822;7.564;2022-10-16T05:33:04;14.70;99.90
4647;DHT22;2336;47.822;7.564;2022-10-16T05:35:32;14.70;99.90
4647;DHT22;2336;47.822;7.564;2022-10-16T05:38:00;14.70;99.90
4647;DHT22;2336;47.822;7.564;2022-10-16T05:40:27;14.60;99.90
4647;DHT22;2336;47.822;7.564;2022-10-16T05:42:55;14.60;99.90
4647;DHT22;2336;47.822;7.564;2022-10-16T05:45:22;14.60;99.90
4647;DHT22;2336;47.822;7.564;2022-10-16T05:47:48;14.60;99.90
4647;DHT22;2336;47.822;7.564;2022-10-16T05:50:15;14.60;99.90
4647;DHT22;2336;47.822;7.564;2022-10-16T05:52:43;14.60;99.90
4647;DHT22;2336;47.822;7.564;2022-10-16T05:55:10;14.60;99.90
4647;DHT22;2336;47.822;7.564;2022-10-16T05:57:37;14.70;99.90
4647;DHT22;2336;47.822;7.564;2022-10-16T06:00:05;14.70;99.90
4647;DHT22;2336;47.822;7.564;2022-10-16T06:02:32;14.70;99.90
4647;DHT22;2336;47.822;7.564;2022-10-16T06:04:58;14.70;99.90
4647;DHT22;2336;47.822;7.564;2022-10-16T06:07:25;14.70;99.90
4647;DHT22;2336;47.822;7.564;2022-10-16T06:09:53;14.70;99.90
4647;DHT22;2336;47.822;7.564;2022-10-16T06:12:20;14.70;99.90
4647;DHT22;2336;47.822;7.564;2022-10-16T06:14:47;14.60;99.90
4647;DHT22;2336;47.822;7.564;2022-10-16T06:17:14;14.60;99.90
4647;DHT22;2336;47.822;7.564;2022-10-16T06:19:41;14.60;99.90
4647;DHT22;2336;47.822;7.564;2022-10-16T06:22:08;14.60;99.90
4647;DHT22;2336;47.822;7.564;2022-10-16T06:24:35;14.60;99.90
4647;DHT22;2336;47.822;7.564;2022-10-16T06:27:03;14.60;99.90
4647;DHT22;2336;47.822;7.564;2022-10-16T06:29:30;14.70;99.90
4647;DHT22;2336;47.822;7.564;2022-10-16T06:31:57;14.70;99.90
4647;DHT22;2336;47.822;7.564;2022-10-16T06:34:24;14.70;99.90
4647;DHT22;2336;47.822;7.564;2022-10-16T06:36:50;14.70;99.90
4647;DHT22;2336;47.822;7.564;2022-10-16T06:39:17;14.70;99.90
4647;DHT22;2336;47.822;7.564;2022-10-16T06:41:44;14.80;99.90
4647;DHT22;2336;47.822;7.564;2022-10-16T06:44:12;14.80;99.90
4647;DHT22;2336;47.822;7.564;2022-10-16T06:46:39;14.90;99.90
4647;DHT22;2336;47.822;7.564;2022-10-16T06:49:06;14.90;99.90
4647;DHT22;2336;47.822;7.564;2022-10-16T06:51:32;14.90;99.90
4647;DHT22;2336;47.822;7.564;2022-10-16T06:54:00;15.00;99.90
4647;DHT22;2336;47.822;7.564;2022-10-16T06:56:28;15.00;99.90
4647;DHT22;2336;47.822;7.564;2022-10-16T06:58:55;15.00;99.90
4647;DHT22;2336;47.822;7.564;2022-10-16T07:01:24;15.00;99.90
4647;DHT22;2336;47.822;7.564;2022-10-16T07:03:51;15.00;99.90
4647;DHT22;2336;47.822;7.564;2022-10-16T07:06:20;15.00;99.90
4647;DHT22;2336;47.822;7.564;2022-10-16T07:08:47;15.10;99.90
4647;DHT22;2336;47.822;7.564;2022-10-16T07:11:16;15.20;99.90
4647;DHT22;2336;47.822;7.564;2022-10-16T07:13:44;15.20;99.90
4647;DHT22;2336;47.822;7.564;2022-10-16T07:16:13;15.30;99.90
4647;DHT22;2336;47.822;7.564;2022-10-16T07:18:42;15.40;99.90
4647;DHT22;2336;47.822;7.564;2022-10-16T07:21:13;15.40;99.90
4647;DHT22;2336;47.822;7.564;2022-10-16T07:23:40;15.50;99.90
4647;DHT22;2336;47.822;7.564;2022-10-16T07:26:07;15.50;99.90
4647;DHT22;2336;47.822;7.564;2022-10-16T07:28:35;15.50;99.90
4647;DHT22;2336;47.822;7.564;2022-10-16T07:31:02;15.70;99.90
4647;DHT22;2336;47.822;7.564;2022-10-16T07:33:30;15.70;99.90
4647;DHT22;2336;47.822;7.564;2022-10-16T07:35:58;15.80;99.90
4647;DHT22;2336;47.822;7.564;2022-10-16T07:38:25;15.90;99.90
4647;DHT22;2336;47.822;7.564;2022-10-16T07:40:56;16.00;99.90
4647;DHT22;2336;47.822;7.564;2022-10-16T07:43:24;16.10;99.90
4647;DHT22;2336;47.822;7.564;2022-10-16T07:45:51;16.20;99.90
4647;DHT22;2336;47.822;7.564;2022-10-16T07:48:19;16.20;99.90
4647;DHT22;2336;47.822;7.564;2022-10-16T07:50:46;16.30;99.90
4647;DHT22;2336;47.822;7.564;2022-10-16T07:53:14;16.30;99.90
4647;DHT22;2336;47.822;7.564;2022-10-16T07:55:42;16.40;99.90
4647;DHT22;2336;47.822;7.564;2022-10-16T07:58:09;16.40;99.90
4647;DHT22;2336;47.822;7.564;2022-10-16T08:00:36;16.50;99.90
4647;DHT22;2336;47.822;7.564;2022-10-16T08:03:04;16.50;99.90
4647;DHT22;2336;47.822;7.564;2022-10-16T08:05:32;16.50;99.90
4647;DHT22;2336;47.822;7.564;2022-10-16T08:07:59;16.60;99.90
4647;DHT22;2336;47.822;7.564;2022-10-16T08:10:29;16.70;99.90
4647;DHT22;2336;47.822;7.564;2022-10-16T08:12:57;16.90;99.90
4647;DHT22;2336;47.822;7.564;2022-10-16T08:15:24;17.00;99.90
4647;DHT22;2336;47.822;7.564;2022-10-16T08:17:55;17.20;99.90
4647;DHT22;2336;47.822;7.564;2022-10-16T08:20:22;17.30;99.90
4647;DHT22;2336;47.822;7.564;2022-10-16T08:22:49;17.50;99.90
4647;DHT22;2336;47.822;7.564;2022-10-16T08:25:15;17.70;99.90
4647;DHT22;2336;47.822;7.564;2022-10-16T08:27:44;17.90;99.90
4647;DHT22;2336;47.822;7.564;2022-10-16T08:30:11;18.10;99.90
4647;DHT22;2336;47.822;7.564;2022-10-16T08:32:37;18.20;99.90
4647;DHT22;2336;47.822;7.564;2022-10-16T08:35:05;18.20;99.90
4647;DHT22;2336;47.822;7.564;2022-10-16T08:37:32;18.30;99.90
4647;DHT22;2336;47.822;7.564;2022-10-16T08:39:59;18.40;99.90
4647;DHT22;2336;47.822;7.564;2022-10-16T08:42:35;18.50;99.90
4647;DHT22;2336;47.822;7.564;2022-10-16T08:45:23;18.60;99.90
4647;DHT22;2336;47.822;7.564;2022-10-16T08:48:00;18.60;99.90
4647;DHT22;2336;47.822;7.564;2022-10-16T08:50:30;18.70;99.90
4647;DHT22;2336;47.822;7.564;2022-10-16T08:52:58;18.80;99.90
4647;DHT22;2336;47.822;7.564;2022-10-16T08:55:31;19.00;99.90
4647;DHT22;2336;47.822;7.564;2022-10-16T08:57:59;19.20;99.90
4647;DHT22;2336;47.822;7.564;2022-10-16T09:00:28;19.40;99.90
4647;DHT22;2336;47.822;7.564;2022-10-16T09:03:03;19.60;99.90
4647;DHT22;2336;47.822;7.564;2022-10-16T09:05:46;19.70;99.90
4647;DHT22;2336;47.822;7.564;2022-10-16T09:08:21;19.80;99.90
4647;DHT22;2336;47.822;7.564;2022-10-16T09:10:57;19.90;99.90
4647;DHT22;2336;47.822;7.564;2022-10-16T09:13:28;19.90;99.90
4647;DHT22;2336;47.822;7.564;2022-10-16T09:16:01;19.90;99.90
4647;DHT22;2336;47.822;7.564;2022-10-16T09:18:35;19.90;99.90
4647;DHT22;2336;47.822;7.564;2022-10-16T09:21:10;19.90;99.90
4647;DHT22;2336;47.822;7.564;2022-10-16T09:23:40;19.90;99.90
4647;DHT22;2336;47.822;7.564;2022-10-16T09:26:11;19.90;99.90
4647;DHT22;2336;47.822;7.564;2022-10-16T09:28:38;20.00;99.90
4647;DHT22;2336;47.822;7.564;2022-10-16T09:31:13;20.10;99.90
4647;DHT22;2336;47.822;7.564;2022-10-16T09:33:42;20.20;99.90
4647;DHT22;2336;47.822;7.564;2022-10-16T09:36:09;20.30;99.90
4647;DHT22;2336;47.822;7.564;2022-10-16T09:38:37;20.50;99.90
4647;DHT22;2336;47.822;7.564;2022-10-16T09:41:18;20.60;99.90
4647;DHT22;2336;47.822;7.564;2022-10-16T09:43:52;20.70;99.90
4647;DHT22;2336;47.822;7.564;2022-10-16T09:46:26;20.90;99.90
4647;DHT22;2336;47.822;7.564;2022-10-16T09:48:56;21.10;99.90
4647;DHT22;2336;47.822;7.564;2022-10-16T09:51:25;21.10;99.90
4647;DHT22;2336;47.822;7.564;2022-10-16T09:53:55;21.10;99.90
4647;DHT22;2336;47.822;7.564;2022-10-16T09:56:25;21.10;99.90
4647;DHT22;2336;47.822;7.564;2022-10-16T09:58:53;20.90;99.90
4647;DHT22;2336;47.822;7.564;2022-10-16T10:01:21;20.90;99.90
4647;DHT22;2336;47.822;7.564;2022-10-16T10:03:50;21.00;99.90
4647;DHT22;2336;47.822;7.564;2022-10-16T10:06:22;21.00;99.90
4647;DHT22;2336;47.822;7.564;2022-10-16T10:08:58;21.10;99.90
4647;DHT22;2336;47.822;7.564;2022-10-16T10:11:39;21.40;99.90
4647;DHT22;2336;47.822;7.564;2022-10-16T10:14:13;21.50;99.90
4647;DHT22;2336;47.822;7.564;2022-10-16T10:16:41;21.60;99.90
4647;DHT22;2336;47.822;7.564;2022-10-16T10:19:14;21.80;99.90
4647;DHT22;2336;47.822;7.564;2022-10-16T10:21:41;22.00;99.90
4647;DHT22;2336;47.822;7.564;2022-10-16T10:24:10;22.20;99.90
4647;DHT22;2336;47.822;7.564;2022-10-16T10:26:39;22.20;99.90
4647;DHT22;2336;47.822;7.564;2022-10-16T10:29:13;22.10;99.90
4647;DHT22;2336;47.822;7.564;2022-10-16T10:31:47;22.10;99.90
4647;DHT22;2336;47.822;7.564;2022-10-16T10:34:33;22.20;99.90
4647;DHT22;2336;47.822;7.564;2022-10-16T10:37:06;22.30;99.90
4647;DHT22;2336;47.822;7.564;2022-10-16T10:39:42;22.30;99.90
4647;DHT22;2336;47.822;7.564;2022-10-16T10:42:21;22.30;99.90
4647;DHT22;2336;47.822;7.564;2022-10-16T10:45:02;22.40;99.90
4647;DHT22;2336;47.822;7.564;2022-10-16T10:47:39;22.50;99.90
4647;DHT22;2336;47.822;7.564;2022-10-16T10:50:14;22.70;99.90
4647;DHT22;2336;47.822;7.564;2022-10-16T10:52:50;23.20;99.90
4647;DHT22;2336;47.822;7.564;2022-10-16T10:55:25;23.70;99.90
4647;DHT22;2336;47.822;7.564;2022-10-16T10:58:05;24.20;99.90
4647;DHT22;2336;47.822;7.564;2022-10-16T11:00:45;24.30;99.90
4647;DHT22;2336;47.822;7.564;2022-10-16T11:03:30;24.10;99.90
4647;DHT22;2336;47.822;7.564;2022-10-16T11:06:05;24.10;99.90
4647;DHT22;2336;47.822;7.564;2022-10-16T11:08:35;24.00;99.90
4647;DHT22;2336;47.822;7.564;2022-10-16T11:11:08;24.00;99.90
4647;DHT22;2336;47.822;7.564;2022-10-16T11:13:39;23.80;99.90
4647;DHT22;2336;47.822;7.564;2022-10-16T11:16:14;23.70;99.90
4647;DHT22;2336;47.822;7.564;2022-10-16T11:18:48;23.60;99.90
4647;DHT22;2336;47.822;7.564;2022-10-16T11:21:19;23.60;99.90
4647;DHT22;2336;47.822;7.564;2022-10-16T11:23:53;23.70;99.90
4647;DHT22;2336;47.822;7.564;2022-10-16T11:26:26;23.70;99.90
4647;DHT22;2336;47.822;7.564;2022-10-16T11:28:55;23.80;99.90
4647;DHT22;2336;47.822;7.564;2022-10-16T11:31:29;24.00;99.90
4647;DHT22;2336;47.822;7.564;2022-10-16T11:34:02;23.80;99.90
4647;DHT22;2336;47.822;7.564;2022-10-16T11:36:36;23.90;99.90
4647;DHT22;2336;47.822;7.564;2022-10-16T11:39:11;24.00;99.90
4647;DHT22;2336;47.822;7.564;2022-10-16T11:41:47;24.20;99.90
4647;DHT22;2336;47.822;7.564;2022-10-16T11:44:23;24.40;99.90
4647;DHT22;2336;47.822;7.564;2022-10-16T11:46:59;24.60;99.90
4647;DHT22;2336;47.822;7.564;2022-10-16T11:49:28;24.70;99.90
4647;DHT22;2336;47.822;7.564;2022-10-16T11:52:04;24.50;99.90
4647;DHT22;2336;47.822;7.564;2022-10-16T11:54:37;24.50;99.90
4647;DHT22;2336;47.822;7.564;2022-10-16T11:57:10;24.70;99.90
4647;DHT22;2336;47.822;7.564;2022-10-16T11:59:43;24.80;99.90
4647;DHT22;2336;47.822;7.564;2022-10-16T12:02:28;24.90;99.90
4647;DHT22;2336;47.822;7.564;2022-10-16T12:05:06;24.90;99.90
4647;DHT22;2336;47.822;7.564;2022-10-16T12:07:40;25.10;99.90
4647;DHT22;2336;47.822;7.564;2022-10-16T12:10:19;25.00;99.90
4647;DHT22;2336;47.822;7.564;2022-10-16T12:12:46;25.00;99.90
4647;DHT22;2336;47.822;7.564;2022-10-16T12:15:22;25.10;99.90
4647;DHT22;2336;47.822;7.564;2022-10-16T12:17:50;25.00;99.90
4647;DHT22;2336;47.822;7.564;2022-10-16T12:20:23;25.20;99.90
4647;DHT22;2336;47.822;7.564;2022-10-16T12:22:55;25.60;99.90
4647;DHT22;2336;47.822;7.564;2022-10-16T12:25:25;25.50;99.90
4647;DHT22;2336;47.822;7.564;2022-10-16T12:27:58;25.40;99.90
4647;DHT22;2336;47.822;7.564;2022-10-16T12:30:27;25.20;99.90
4647;DHT22;2336;47.822;7.564;2022-10-16T12:32:56;25.10;99.90
4647;DHT22;2336;47.822;7.564;2022-10-16T12:35:26;25.00;99.90
4647;DHT22;2336;47.822;7.564;2022-10-16T12:38:05;25.10;99.90
4647;DHT22;2336;47.822;7.564;2022-10-16T12:40:35;25.20;99.90
4647;DHT22;2336;47.822;7.564;2022-10-16T12:43:25;25.20;99.90
4647;DHT22;2336;47.822;7.564;2022-10-16T12:46:03;25.30;99.90
4647;DHT22;2336;47.822;7.564;2022-10-16T12:48:31;25.20;99.90
4647;DHT22;2336;47.822;7.564;2022-10-16T12:51:09;25.10;99.90
4647;DHT22;2336;47.822;7.564;2022-10-16T12:53:38;25.00;99.90
4647;DHT22;2336;47.822;7.564;2022-10-16T12:56:12;25.00;99.90
4647;DHT22;2336;47.822;7.564;2022-10-16T12:58:59;24.90;99.90
4647;DHT22;2336;47.822;7.564;2022-10-16T13:01:37;24.80;99.90
4647;DHT22;2336;47.822;7.564;2022-10-16T13:04:31;24.60;99.90
4647;DHT22;2336;47.822;7.564;2022-10-16T13:07:13;24.60;99.90
4647;DHT22;2336;47.822;7.564;2022-10-16T13:09:54;24.50;99.90
4647;DHT22;2336;47.822;7.564;2022-10-16T13:12:55;24.40;99.90
4647;DHT22;2336;47.822;7.564;2022-10-16T13:15:33;24.40;99.90
4647;DHT22;2336;47.822;7.564;2022-10-16T13:18:08;24.50;99.90
4647;DHT22;2336;47.822;7.564;2022-10-16T13:20:51;24.60;99.90
4647;DHT22;2336;47.822;7.564;2022-10-16T13:23:24;24.60;99.90
4647;DHT22;2336;47.822;7.564;2022-10-16T13:26:04;24.60;99.90
4647;DHT22;2336;47.822;7.564;2022-10-16T13:28:35;24.60;99.90
4647;DHT22;2336;47.822;7.564;2022-10-16T13:31:02;24.70;99.90
4647;DHT22;2336;47.822;7.564;2022-10-16T13:33:32;24.70;99.90
4647;DHT22;2336;47.822;7.564;2022-10-16T13:36:00;24.50;99.90
4647;DHT22;2336;47.822;7.564;2022-10-16T13:38:27;24.50;99.90
4647;DHT22;2336;47.822;7.564;2022-10-16T13:40:58;24.50;99.90
4647;DHT22;2336;47.822;7.564;2022-10-16T13:43:28;24.40;99.90
4647;DHT22;2336;47.822;7.564;2022-10-16T13:45:59;24.40;99.90
4647;DHT22;2336;47.822;7.564;2022-10-16T13:48:27;24.40;99.90
4647;DHT22;2336;47.822;7.564;2022-10-16T13:51:02;24.50;99.90
4647;DHT22;2336;47.822;7.564;2022-10-16T13:53:31;24.50;99.90
4647;DHT22;2336;47.822;7.564;2022-10-16T13:56:00;24.50;99.90
4647;DHT22;2336;47.822;7.564;2022-10-16T13:58:28;24.50;99.90
4647;DHT22;2336;47.822;7.564;2022-10-16T14:00:56;24.60;99.90
4647;DHT22;2336;47.822;7.564;2022-10-16T14:03:25;24.60;99.90
4647;DHT22;2336;47.822;7.564;2022-10-16T14:05:54;24.60;99.90
4647;DHT22;2336;47.822;7.564;2022-10-16T14:08:22;24.50;99.90
4647;DHT22;2336;47.822;7.564;2022-10-16T14:10:51;24.50;99.90
4647;DHT22;2336;47.822;7.564;2022-10-16T14:13:26;24.50;99.90
4647;DHT22;2336;47.822;7.564;2022-10-16T14:15:55;24.60;99.90
4647;DHT22;2336;47.822;7.564;2022-10-16T14:18:26;24.70;99.90
4647;DHT22;2336;47.822;7.564;2022-10-16T14:20:54;24.70;99.90
4647;DHT22;2336;47.822;7.564;2022-10-16T14:23:23;24.70;99.90
4647;DHT22;2336;47.822;7.564;2022-10-16T14:26:04;24.70;99.90
4647;DHT22;2336;47.822;7.564;2022-10-16T14:28:33;24.90;99.90
4647;DHT22;2336;47.822;7.564;2022-10-16T14:31:01;24.90;99.90
4647;DHT22;2336;47.822;7.564;2022-10-16T14:33:32;24.90;99.90
4647;DHT22;2336;47.822;7.564;2022-10-16T14:36:03;24.80;99.90
4647;DHT22;2336;47.822;7.564;2022-10-16T14:38:31;24.80;99.90
4647;DHT22;2336;47.822;7.564;2022-10-16T14:40:59;24.90;99.90
4647;DHT22;2336;47.822;7.564;2022-10-16T14:43:33;25.00;99.90
4647;DHT22;2336;47.822;7.564;2022-10-16T14:46:02;25.00;99.90
4647;DHT22;2336;47.822;7.564;2022-10-16T14:48:30;25.00;99.90
4647;DHT22;2336;47.822;7.564;2022-10-16T14:50:57;24.90;99.90
4647;DHT22;2336;47.822;7.564;2022-10-16T14:53:24;24.90;99.90
4647;DHT22;2336;47.822;7.564;2022-10-16T14:55:50;24.80;99.90
4647;DHT22;2336;47.822;7.564;2022-10-16T14:58:19;24.60;99.90
4647;DHT22;2336;47.822;7.564;2022-10-16T15:00:49;24.50;99.90
4647;DHT22;2336;47.822;7.564;2022-10-16T15:03:16;24.40;99.90
4647;DHT22;2336;47.822;7.564;2022-10-16T15:05:43;24.40;99.90
4647;DHT22;2336;47.822;7.564;2022-10-16T15:08:10;24.30;99.90
4647;DHT22;2336;47.822;7.564;2022-10-16T15:10:39;24.20;99.90
4647;DHT22;2336;47.822;7.564;2022-10-16T15:13:11;24.20;99.90
4647;DHT22;2336;47.822;7.564;2022-10-16T15:15:40;24.00;99.90
4647;DHT22;2336;47.822;7.564;2022-10-16T15:18:09;24.00;99.90
4647;DHT22;2336;47.822;7.564;2022-10-16T15:20:38;23.90;99.90
4647;DHT22;2336;47.822;7.564;2022-10-16T15:23:09;23.80;99.90
4647;DHT22;2336;47.822;7.564;2022-10-16T15:25:39;23.90;99.90
4647;DHT22;2336;47.822;7.564;2022-10-16T15:28:10;23.80;99.90
4647;DHT22;2336;47.822;7.564;2022-10-16T15:30:37;23.80;99.90
4647;DHT22;2336;47.822;7.564;2022-10-16T15:33:09;23.70;99.90
4647;DHT22;2336;47.822;7.564;2022-10-16T15:35:38;23.60;99.90
4647;DHT22;2336;47.822;7.564;2022-10-16T15:38:05;23.70;99.90
4647;DHT22;2336;47.822;7.564;2022-10-16T15:40:32;23.60;99.90
4647;DHT22;2336;47.822;7.564;2022-10-16T15:42:59;23.50;99.90
4647;DHT22;2336;47.822;7.564;2022-10-16T15:45:25;23.40;99.90
4647;DHT22;2336;47.822;7.564;2022-10-16T15:47:52;23.40;99.90
4647;DHT22;2336;47.822;7.564;2022-10-16T15:50:19;23.30;99.90
4647;DHT22;2336;47.822;7.564;2022-10-16T15:52:47;23.10;99.90
4647;DHT22;2336;47.822;7.564;2022-10-16T15:55:16;23.00;99.90
4647;DHT22;2336;47.822;7.564;2022-10-16T15:57:44;22.90;99.90
4647;DHT22;2336;47.822;7.564;2022-10-16T16:00:13;22.90;99.90
4647;DHT22;2336;47.822;7.564;2022-10-16T16:02:41;22.80;99.90
4647;DHT22;2336;47.822;7.564;2022-10-16T16:05:09;22.60;99.90
4647;DHT22;2336;47.822;7.564;2022-10-16T16:07:38;22.50;99.90
4647;DHT22;2336;47.822;7.564;2022-10-16T16:10:09;22.30;99.90
4647;DHT22;2336;47.822;7.564;2022-10-16T16:12:36;22.20;99.90
4647;DHT22;2336;47.822;7.564;2022-10-16T16:15:04;22.00;99.90
4647;DHT22;2336;47.822;7.564;2022-10-16T16:17:31;21.90;99.90
4647;DHT22;2336;47.822;7.564;2022-10-16T16:19:58;21.80;99.90
4647;DHT22;2336;47.822;7.564;2022-10-16T16:22:24;21.60;99.90
4647;DHT22;2336;47.822;7.564;2022-10-16T16:24:51;21.50;99.90
4647;DHT22;2336;47.822;7.564;2022-10-16T16:27:19;21.40;99.90
4647;DHT22;2336;47.822;7.564;2022-10-16T16:29:46;21.30;99.90
4647;DHT22;2336;47.822;7.564;2022-10-16T16:32:13;21.20;99.90
4647;DHT22;2336;47.822;7.564;2022-10-16T16:34:40;21.00;99.90
4647;DHT22;2336;47.822;7.564;2022-10-16T16:37:07;20.90;99.90
4647;DHT22;2336;47.822;7.564;2022-10-16T16:39:33;20.70;99.90
4647;DHT22;2336;47.822;7.564;2022-10-16T16:42:00;20.60;99.90
4647;DHT22;2336;47.822;7.564;2022-10-16T16:44:30;20.50;99.90
4647;DHT22;2336;47.822;7.564;2022-10-16T16:46:56;20.40;99.90
4647;DHT22;2336;47.822;7.564;2022-10-16T16:49:23;20.30;99.90
4647;DHT22;2336;47.822;7.564;2022-10-16T16:51:50;20.20;99.90
4647;DHT22;2336;47.822;7.564;2022-10-16T16:54:17;20.10;99.90
4647;DHT22;2336;47.822;7.564;2022-10-16T16:56:43;20.00;99.90
4647;DHT22;2336;47.822;7.564;2022-10-16T16:59:13;19.90;99.90
4647;DHT22;2336;47.822;7.564;2022-10-16T17:01:41;19.80;99.90
4647;DHT22;2336;47.822;7.564;2022-10-16T17:04:09;19.70;99.90
4647;DHT22;2336;47.822;7.564;2022-10-16T17:06:37;19.60;99.90
4647;DHT22;2336;47.822;7.564;2022-10-16T17:09:05;19.50;99.90
4647;DHT22;2336;47.822;7.564;2022-10-16T17:11:33;19.50;99.90
4647;DHT22;2336;47.822;7.564;2022-10-16T17:14:01;19.40;99.90
4647;DHT22;2336;47.822;7.564;2022-10-16T17:16:30;19.40;99.90
4647;DHT22;2336;47.822;7.564;2022-10-16T17:19:01;19.30;99.90
4647;DHT22;2336;47.822;7.564;2022-10-16T17:21:28;19.30;99.90
4647;DHT22;2336;47.822;7.564;2022-10-16T17:23:57;19.30;99.90
4647;DHT22;2336;47.822;7.564;2022-10-16T17:26:25;19.20;99.90
4647;DHT22;2336;47.822;7.564;2022-10-16T17:28:52;19.20;99.90
4647;DHT22;2336;47.822;7.564;2022-10-16T17:31:21;19.20;99.90
4647;DHT22;2336;47.822;7.564;2022-10-16T17:33:48;19.20;99.90
4647;DHT22;2336;47.822;7.564;2022-10-16T17:36:18;19.10;99.90
4647;DHT22;2336;47.822;7.564;2022-10-16T17:38:45;19.10;99.90
4647;DHT22;2336;47.822;7.564;2022-10-16T17:41:13;19.10;99.90
4647;DHT22;2336;47.822;7.564;2022-10-16T17:43:40;19.10;99.90
4647;DHT22;2336;47.822;7.564;2022-10-16T17:46:08;19.10;99.90
4647;DHT22;2336;47.822;7.564;2022-10-16T17:48:38;19.10;99.90
4647;DHT22;2336;47.822;7.564;2022-10-16T17:51:05;19.10;99.90
4647;DHT22;2336;47.822;7.564;2022-10-16T17:53:34;19.10;99.90
4647;DHT22;2336;47.822;7.564;2022-10-16T17:56:02;19.30;99.90
4647;DHT22;2336;47.822;7.564;2022-10-16T17:58:30;19.30;99.90
4647;DHT22;2336;47.822;7.564;2022-10-16T18:00:57;19.40;99.90
4647;DHT22;2336;47.822;7.564;2022-10-16T18:03:23;19.50;99.90
4647;DHT22;2336;47.822;7.564;2022-10-16T18:05:53;19.50;99.90
4647;DHT22;2336;47.822;7.564;2022-10-16T18:08:19;19.40;99.90
4647;DHT22;2336;47.822;7.564;2022-10-16T18:10:49;19.20;99.90
4647;DHT22;2336;47.822;7.564;2022-10-16T18:13:16;19.10;99.90
4647;DHT22;2336;47.822;7.564;2022-10-16T18:15:43;18.90;99.90
4647;DHT22;2336;47.822;7.564;2022-10-16T18:18:10;18.80;99.90
4647;DHT22;2336;47.822;7.564;2022-10-16T18:20:37;18.70;99.90
4647;DHT22;2336;47.822;7.564;2022-10-16T18:23:04;18.60;99.90
4647;DHT22;2336;47.822;7.564;2022-10-16T18:25:31;18.50;99.90
4647;DHT22;2336;47.822;7.564;2022-10-16T18:27:59;18.40;99.90
4647;DHT22;2336;47.822;7.564;2022-10-16T18:30:26;18.30;99.90
4647;DHT22;2336;47.822;7.564;2022-10-16T18:32:53;18.30;99.90
4647;DHT22;2336;47.822;7.564;2022-10-16T18:35:19;18.30;99.90
4647;DHT22;2336;47.822;7.564;2022-10-16T18:37:46;18.20;99.90
4647;DHT22;2336;47.822;7.564;2022-10-16T18:40:13;18.20;99.90
4647;DHT22;2336;47.822;7.564;2022-10-16T18:42:40;18.20;99.90
4647;DHT22;2336;47.822;7.564;2022-10-16T18:45:08;18.00;99.90
4647;DHT22;2336;47.822;7.564;2022-10-16T18:47:35;18.00;99.90
4647;DHT22;2336;47.822;7.564;2022-10-16T18:50:02;18.00;99.90
4647;DHT22;2336;47.822;7.564;2022-10-16T18:52:29;18.00;99.90
4647;DHT22;2336;47.822;7.564;2022-10-16T18:54:56;17.90;99.90
4647;DHT22;2336;47.822;7.564;2022-10-16T18:57:23;17.80;99.90
4647;DHT22;2336;47.822;7.564;2022-10-16T18:59:53;17.80;99.90
4647;DHT22;2336;47.822;7.564;2022-10-16T19:02:21;17.80;99.90
4647;DHT22;2336;47.822;7.564;2022-10-16T19:04:48;17.70;99.90
4647;DHT22;2336;47.822;7.564;2022-10-16T19:07:14;17.70;99.90
4647;DHT22;2336;47.822;7.564;2022-10-16T19:09:41;17.60;99.90
4647;DHT22;2336;47.822;7.564;2022-10-16T19:12:08;17.70;99.90
4647;DHT22;2336;47.822;7.564;2022-10-16T19:14:35;17.70;99.90
4647;DHT22;2336;47.822;7.564;2022-10-16T19:17:02;17.70;99.90